createdAt,value
2019-02-18T00:01:30.610Z,4.65
2019-02-18T00:02:56.178Z,5.03
2019-02-18T00:04:21.630Z,6.08
2019-02-18T00:05:47.214Z,5.65
2019-02-18T00:07:14.786Z,5.95
2019-02-18T00:08:39.857Z,6.35
2019-02-18T00:10:05.586Z,5.90
2019-02-18T00:11:31.140Z,5.67
2019-02-18T00:12:56.663Z,5.53
2019-02-18T00:14:24.834Z,5.30
2019-02-18T00:15:50.308Z,5.67
2019-02-18T00:17:15.802Z,5.65
2019-02-18T00:18:41.223Z,4.80
2019-02-18T00:20:06.785Z,6.35
2019-02-18T00:21:32.266Z,6.40
2019-02-18T00:22:57.801Z,6.03
2019-02-18T00:24:23.307Z,6.00
2019-02-18T00:25:48.783Z,6.92
2019-02-18T00:27:14.241Z,7.00
2019-02-18T00:28:39.695Z,7.15
2019-02-18T00:30:05.312Z,7.03
2019-02-18T00:31:30.867Z,5.95
2019-02-18T00:32:56.323Z,4.95
2019-02-18T00:34:21.830Z,6.10
2019-02-18T00:35:47.274Z,5.28
2019-02-18T00:37:12.706Z,6.35
2019-02-18T00:38:38.228Z,6.10
2019-02-18T00:40:03.655Z,6.20
2019-02-18T00:41:29.127Z,4.87
2019-02-18T00:42:54.600Z,4.87
2019-02-18T00:44:20.151Z,5.53
2019-02-18T00:45:45.606Z,4.30
2019-02-18T00:47:11.051Z,4.85
2019-02-18T00:48:36.599Z,5.45
2019-02-18T00:50:02.042Z,6.20
2019-02-18T00:51:27.544Z,4.95
2019-02-18T00:52:53.056Z,5.17
2019-02-18T00:54:18.604Z,5.15
2019-02-18T00:55:44.049Z,4.05
2019-02-18T00:57:09.506Z,4.72
2019-02-18T00:58:34.985Z,5.60
2019-02-18T01:00:00.488Z,3.90
2019-02-18T01:01:26.128Z,4.35
2019-02-18T01:02:51.750Z,3.95
2019-02-18T01:04:17.259Z,4.00
2019-02-18T01:05:42.767Z,4.60
2019-02-18T01:07:08.227Z,4.55
2019-02-18T01:08:33.939Z,4.45
2019-02-18T01:09:59.468Z,4.45
2019-02-18T01:11:24.916Z,3.62
2019-02-18T01:12:50.366Z,5.03
2019-02-18T01:14:15.995Z,4.15
2019-02-18T01:15:41.464Z,4.55
2019-02-18T01:17:06.952Z,4.10
2019-02-18T01:18:32.386Z,4.15
2019-02-18T01:19:57.825Z,4.80
2019-02-18T01:21:23.241Z,4.75
2019-02-18T01:22:48.845Z,4.25
2019-02-18T01:24:14.398Z,4.83
2019-02-18T01:25:39.850Z,3.83
2019-02-18T01:27:05.407Z,5.35
2019-02-18T01:28:30.855Z,4.00
2019-02-18T01:29:56.324Z,5.10
2019-02-18T01:31:21.783Z,3.62
2019-02-18T01:32:47.318Z,3.85
2019-02-18T01:34:12.754Z,3.08
2019-02-18T01:35:38.215Z,4.28
2019-02-18T01:37:03.676Z,3.77
2019-02-18T01:38:29.089Z,3.58
2019-02-18T01:39:54.574Z,4.12
2019-02-18T01:41:20.068Z,3.10
2019-02-18T01:42:45.727Z,3.45
2019-02-18T01:44:11.197Z,3.50
2019-02-18T01:45:36.667Z,3.47
2019-02-18T01:47:02.118Z,4.17
2019-02-18T01:48:27.580Z,3.92
2019-02-18T01:49:53.007Z,3.33
2019-02-18T01:51:18.542Z,3.25
2019-02-18T01:52:43.960Z,3.55
2019-02-18T01:54:09.418Z,4.53
2019-02-18T01:55:34.842Z,4.25
2019-02-18T01:57:00.366Z,4.80
2019-02-18T01:58:25.847Z,5.40
2019-02-18T01:59:51.392Z,3.47
2019-02-18T02:01:16.909Z,3.67
2019-02-18T02:02:42.571Z,3.40
2019-02-18T02:04:08.062Z,3.85
2019-02-18T02:05:33.548Z,3.45
2019-02-18T02:06:58.970Z,3.50
2019-02-18T02:08:24.438Z,3.47
2019-02-18T02:09:49.854Z,3.27
2019-02-18T02:11:15.324Z,3.87
2019-02-18T02:12:40.908Z,3.75
2019-02-18T02:14:06.387Z,3.25
2019-02-18T02:15:31.840Z,3.40
2019-02-18T02:16:57.310Z,3.80
2019-02-18T02:18:22.857Z,3.45
2019-02-18T02:19:48.291Z,3.52
2019-02-18T02:21:13.878Z,3.17
2019-02-18T02:22:39.461Z,3.65
2019-02-18T02:24:04.902Z,3.62
2019-02-18T02:25:30.328Z,3.20
2019-02-18T02:26:55.775Z,2.90
2019-02-18T02:28:21.218Z,2.92
2019-02-18T02:29:46.659Z,3.30
2019-02-18T02:31:12.101Z,2.90
2019-02-18T02:32:37.580Z,3.42
2019-02-18T02:34:02.987Z,3.90
2019-02-18T02:35:28.417Z,3.72
2019-02-18T02:36:53.898Z,3.65
2019-02-18T02:38:19.359Z,4.45
2019-02-18T02:39:44.851Z,3.35
2019-02-18T02:41:10.333Z,3.05
2019-02-18T02:42:35.859Z,3.47
2019-02-18T02:44:01.314Z,3.87
2019-02-18T02:45:26.739Z,3.85
2019-02-18T02:46:52.203Z,4.37
2019-02-18T02:48:17.721Z,4.45
2019-02-18T02:49:43.188Z,4.05
2019-02-18T02:51:08.588Z,3.30
2019-02-18T02:52:34.050Z,4.20
2019-02-18T02:53:59.613Z,4.25
2019-02-18T02:55:25.051Z,4.60
2019-02-18T02:56:50.558Z,5.65
2019-02-18T02:58:16.056Z,4.62
2019-02-18T02:59:41.524Z,5.50
2019-02-18T03:01:07.072Z,4.87
2019-02-18T03:02:32.563Z,6.20
2019-02-18T03:03:58.013Z,5.15
2019-02-18T03:05:23.479Z,6.40
2019-02-18T03:06:48.964Z,5.83
2019-02-18T03:08:20.317Z,6.50
2019-02-18T03:09:41.546Z,6.92
2019-02-18T03:11:06.988Z,8.65
2019-02-18T03:12:32.458Z,6.72
2019-02-18T03:13:57.908Z,7.00
2019-02-18T03:15:23.335Z,6.75
2019-02-18T03:16:48.766Z,5.55
2019-02-18T03:18:14.368Z,5.78
2019-02-18T03:19:39.816Z,4.33
2019-02-18T03:21:05.360Z,4.67
2019-02-18T03:22:30.823Z,4.62
2019-02-18T03:23:56.310Z,3.60
2019-02-18T03:25:30.356Z,3.50
2019-02-18T03:26:55.794Z,3.75
2019-02-18T03:28:59.244Z,3.25
2019-02-18T03:30:57.425Z,2.70
2019-02-18T03:32:22.895Z,3.45
2019-02-18T03:33:52.572Z,3.15
2019-02-18T03:35:18.005Z,3.15
2019-02-18T03:36:43.515Z,3.40
2019-02-18T03:38:08.998Z,2.92
2019-02-18T03:39:34.426Z,3.60
2019-02-18T03:41:03.290Z,2.52
2019-02-18T03:42:26.987Z,2.83
2019-02-18T03:43:52.470Z,3.15
2019-02-18T03:45:17.915Z,2.67
2019-02-18T03:46:43.506Z,3.10
2019-02-18T03:48:09.065Z,2.12
2019-02-18T03:49:34.555Z,2.20
2019-02-18T03:50:59.970Z,2.70
2019-02-18T03:52:25.441Z,3.42
2019-02-18T03:53:50.910Z,3.30
2019-02-18T03:55:16.358Z,2.55
2019-02-18T03:56:41.815Z,2.40
2019-02-18T03:58:07.332Z,3.02
2019-02-18T03:59:32.891Z,3.12
2019-02-18T04:00:58.429Z,2.60
2019-02-18T04:02:23.956Z,2.60
2019-02-18T04:03:49.438Z,2.20
2019-02-18T04:05:14.842Z,3.00
2019-02-18T04:06:40.313Z,1.70
2019-02-18T04:08:05.742Z,2.55
2019-02-18T04:09:31.290Z,3.17
2019-02-18T04:10:56.720Z,2.25
2019-02-18T04:12:22.154Z,3.08
2019-02-18T04:13:47.618Z,2.40
2019-02-18T04:15:13.307Z,2.60
2019-02-18T04:16:38.753Z,3.20
2019-02-18T04:18:04.383Z,2.90
2019-02-18T04:19:29.866Z,3.55
2019-02-18T04:20:55.331Z,3.85
2019-02-18T04:22:20.885Z,3.20
2019-02-18T04:23:46.418Z,3.58
2019-02-18T04:25:11.944Z,2.55
2019-02-18T04:26:37.345Z,2.33
2019-02-18T04:28:02.795Z,3.98
2019-02-18T04:29:28.255Z,2.95
2019-02-18T04:30:53.706Z,2.60
2019-02-18T04:32:19.179Z,2.90
2019-02-18T04:33:44.646Z,2.60
2019-02-18T04:35:10.232Z,2.52
2019-02-18T04:36:35.651Z,2.33
2019-02-18T04:38:01.095Z,2.08
2019-02-18T04:39:26.600Z,2.58
2019-02-18T04:40:52.002Z,2.35
2019-02-18T04:42:17.477Z,2.15
2019-02-18T04:43:42.926Z,2.12
2019-02-18T04:45:08.567Z,2.85
2019-02-18T04:46:34.043Z,2.42
2019-02-18T04:47:59.495Z,2.52
2019-02-18T04:49:24.947Z,2.37
2019-02-18T04:50:50.483Z,2.17
2019-02-18T04:52:15.962Z,2.30
2019-02-18T04:53:41.404Z,2.47
2019-02-18T04:55:07.989Z,2.17
2019-02-18T04:56:33.399Z,2.20
2019-02-18T04:57:58.846Z,2.60
2019-02-18T04:59:24.295Z,2.42
2019-02-18T05:00:49.842Z,2.12
2019-02-18T05:02:15.301Z,2.40
2019-02-18T05:03:40.935Z,2.37
2019-02-18T05:05:07.085Z,2.10
2019-02-18T05:06:32.546Z,2.55
2019-02-18T05:07:58.167Z,2.83
2019-02-18T05:09:23.575Z,2.10
2019-02-18T05:10:49.059Z,2.67
2019-02-18T05:12:14.577Z,3.08
2019-02-18T05:13:39.991Z,2.75
2019-02-18T05:15:05.702Z,2.50
2019-02-18T05:16:31.283Z,3.02
2019-02-18T05:17:56.729Z,2.75
2019-02-18T05:19:23.071Z,2.47
2019-02-18T05:20:48.655Z,2.72
2019-02-18T05:22:14.181Z,2.17
2019-02-18T05:23:58.593Z,2.45
2019-02-18T05:25:24.056Z,2.60
2019-02-18T05:26:49.508Z,2.98
2019-02-18T05:28:14.954Z,2.45
2019-02-18T05:29:40.417Z,2.40
2019-02-18T05:31:05.893Z,2.80
2019-02-18T05:32:31.345Z,2.40
2019-02-18T05:33:56.862Z,2.65
2019-02-18T05:35:22.348Z,2.60
2019-02-18T05:36:47.808Z,2.83
2019-02-18T05:38:13.240Z,2.05
2019-02-18T05:39:38.644Z,2.27
2019-02-18T05:41:04.191Z,2.22
2019-02-18T05:42:29.662Z,2.35
2019-02-18T05:43:55.097Z,2.17
2019-02-18T05:45:20.598Z,2.20
2019-02-18T05:46:46.179Z,2.85
2019-02-18T05:48:11.637Z,2.95
2019-02-18T05:49:37.080Z,2.65
2019-02-18T05:51:02.560Z,2.77
2019-02-18T05:52:28.046Z,2.95
2019-02-18T05:53:53.507Z,2.00
2019-02-18T05:55:18.993Z,2.98
2019-02-18T05:56:44.482Z,2.75
2019-02-18T05:58:09.918Z,2.50
2019-02-18T05:59:36.457Z,2.98
2019-02-18T06:01:01.915Z,2.62
2019-02-18T06:02:27.460Z,1.82
2019-02-18T06:03:52.881Z,2.55
2019-02-18T06:05:20.409Z,2.70
2019-02-18T06:06:45.867Z,2.08
2019-02-18T06:08:11.285Z,2.45
2019-02-18T06:09:37.755Z,2.83
2019-02-18T06:11:03.242Z,2.40
2019-02-18T06:12:28.807Z,3.00
2019-02-18T06:13:54.237Z,2.27
2019-02-18T06:15:19.660Z,2.60
2019-02-18T06:16:45.240Z,3.98
2019-02-18T06:18:10.641Z,2.12
2019-02-18T06:19:36.045Z,2.62
2019-02-18T06:21:01.486Z,2.22
2019-02-18T06:22:26.984Z,2.75
2019-02-18T06:23:52.437Z,2.27
2019-02-18T06:25:17.919Z,2.15
2019-02-18T06:26:43.343Z,2.27
2019-02-18T06:28:08.811Z,2.20
2019-02-18T06:29:34.255Z,2.77
2019-02-18T06:30:59.711Z,2.42
2019-02-18T06:32:25.170Z,2.00
2019-02-18T06:33:50.678Z,2.70
2019-02-18T06:35:16.143Z,2.45
2019-02-18T06:36:41.630Z,2.45
2019-02-18T06:38:07.076Z,2.05
2019-02-18T06:39:40.907Z,2.55
2019-02-18T06:40:59.578Z,2.58
2019-02-18T06:42:25.110Z,2.20
2019-02-18T06:43:51.779Z,2.05
2019-02-18T06:45:36.162Z,2.15
2019-02-18T06:47:06.491Z,2.90
2019-02-18T06:48:33.878Z,2.27
2019-02-18T06:49:59.314Z,2.60
2019-02-18T06:51:24.741Z,2.67
2019-02-18T06:52:50.226Z,2.17
2019-02-18T06:54:15.670Z,2.98
2019-02-18T06:55:41.222Z,2.30
2019-02-18T06:57:20.386Z,3.00
2019-02-18T06:58:59.226Z,3.12
2019-02-18T07:00:38.614Z,2.92
2019-02-18T07:02:14.383Z,2.83
2019-02-18T07:04:07.180Z,2.12
2019-02-18T07:06:00.601Z,2.60
2019-02-18T07:07:44.957Z,2.67
2019-02-18T07:09:36.078Z,2.22
2019-02-18T07:11:14.995Z,3.55
2019-02-18T07:12:44.202Z,2.60
2019-02-18T07:14:09.652Z,2.83
2019-02-18T07:15:35.088Z,2.95
2019-02-18T07:17:00.539Z,2.60
2019-02-18T07:18:26.010Z,2.90
2019-02-18T07:19:51.476Z,3.42
2019-02-18T07:21:16.911Z,3.00
2019-02-18T07:22:42.365Z,3.12
2019-02-18T07:24:07.848Z,2.83
2019-02-18T07:25:33.295Z,2.98
2019-02-18T07:26:58.781Z,3.85
2019-02-18T07:28:24.261Z,2.30
2019-02-18T07:29:49.740Z,2.98
2019-02-18T07:31:15.180Z,3.37
2019-02-18T07:32:40.570Z,2.92
2019-02-18T07:34:06.135Z,3.20
2019-02-18T07:35:31.553Z,4.00
2019-02-18T07:36:56.951Z,2.62
2019-02-18T07:38:22.422Z,2.65
2019-02-18T07:39:47.850Z,3.02
2019-02-18T07:41:13.309Z,2.30
2019-02-18T07:42:38.838Z,2.62
2019-02-18T07:44:04.492Z,3.52
2019-02-18T07:45:29.952Z,3.17
2019-02-18T07:46:55.407Z,3.15
2019-02-18T07:48:20.886Z,4.15
2019-02-18T07:49:46.359Z,2.92
2019-02-18T07:51:11.818Z,3.77
2019-02-18T07:52:37.273Z,2.65
2019-02-18T07:54:02.721Z,3.62
2019-02-18T07:55:28.213Z,3.15
2019-02-18T07:56:53.667Z,2.25
2019-02-18T07:58:19.204Z,2.45
2019-02-18T07:59:44.726Z,3.33
2019-02-18T08:01:10.262Z,3.00
2019-02-18T08:02:35.919Z,3.33
2019-02-18T08:04:01.366Z,2.55
2019-02-18T08:05:26.987Z,3.17
2019-02-18T08:06:52.438Z,3.90
2019-02-18T08:08:18.045Z,3.50
2019-02-18T08:09:43.551Z,3.15
2019-02-18T08:11:09.024Z,4.00
2019-02-18T08:12:34.562Z,2.62
2019-02-18T08:14:00.108Z,2.80
2019-02-18T08:15:25.599Z,3.35
2019-02-18T08:16:51.149Z,3.12
2019-02-18T08:18:16.675Z,2.72
2019-02-18T08:19:42.382Z,3.42
2019-02-18T08:21:07.827Z,4.37
2019-02-18T08:22:33.395Z,2.95
2019-02-18T08:24:00.305Z,3.17
2019-02-18T08:25:26.246Z,4.00
2019-02-18T08:26:51.722Z,3.02
2019-02-18T08:28:17.195Z,3.52
2019-02-18T08:29:42.668Z,3.27
2019-02-18T08:31:08.860Z,3.90
2019-02-18T08:32:34.385Z,2.83
2019-02-18T08:33:59.860Z,3.10
2019-02-18T08:35:25.633Z,3.27
2019-02-18T08:36:51.184Z,3.50
2019-02-18T08:38:16.686Z,3.33
2019-02-18T08:39:42.187Z,2.75
2019-02-18T08:41:07.728Z,3.33
2019-02-18T08:42:34.275Z,3.45
2019-02-18T08:43:59.846Z,3.67
2019-02-18T08:45:25.329Z,3.72
2019-02-18T08:46:50.901Z,3.50
2019-02-18T08:48:16.372Z,4.67
2019-02-18T08:49:41.806Z,3.17
2019-02-18T08:51:07.319Z,4.05
2019-02-18T08:52:32.830Z,4.45
2019-02-18T08:53:58.361Z,3.47
2019-02-18T08:55:23.831Z,4.60
2019-02-18T08:56:49.328Z,4.00
2019-02-18T08:58:14.764Z,3.95
2019-02-18T08:59:40.199Z,4.62
2019-02-18T09:01:05.731Z,4.55
2019-02-18T09:02:31.399Z,4.30
2019-02-18T09:03:56.920Z,4.62
2019-02-18T09:05:22.907Z,4.15
2019-02-18T09:06:48.573Z,4.55
2019-02-18T09:08:14.118Z,4.00
2019-02-18T09:09:39.665Z,3.85
2019-02-18T09:11:05.360Z,4.75
2019-02-18T09:12:30.879Z,3.77
2019-02-18T09:13:56.451Z,4.15
2019-02-18T09:15:21.971Z,4.12
2019-02-18T09:16:47.487Z,3.45
2019-02-18T09:18:13.063Z,3.52
2019-02-18T09:19:38.665Z,4.45
2019-02-18T09:21:04.113Z,3.72
2019-02-18T09:22:43.126Z,4.40
2019-02-18T09:24:31.329Z,4.25
2019-02-18T09:25:59.322Z,4.58
2019-02-18T09:27:24.904Z,4.05
2019-02-18T09:28:50.383Z,4.30
2019-02-18T09:30:18.328Z,3.80
2019-02-18T09:31:43.952Z,4.75
2019-02-18T09:33:09.421Z,4.55
2019-02-18T09:34:34.930Z,4.83
2019-02-18T09:36:00.376Z,4.10
2019-02-18T09:37:26.064Z,4.90
2019-02-18T09:38:51.520Z,4.13
2019-02-18T09:40:17.065Z,4.80
2019-02-18T09:41:42.592Z,4.10
2019-02-18T09:43:08.120Z,4.35
2019-02-18T09:44:33.712Z,3.98
2019-02-18T09:45:59.321Z,3.95
2019-02-18T09:47:25.896Z,4.17
2019-02-18T09:48:51.666Z,3.77
2019-02-18T09:50:17.269Z,5.08
2019-02-18T09:51:42.724Z,4.70
2019-02-18T09:53:08.221Z,5.00
2019-02-18T09:54:33.697Z,4.35
2019-02-18T09:55:59.280Z,4.30
2019-02-18T09:57:24.847Z,4.30
2019-02-18T09:58:50.366Z,5.60
2019-02-18T10:00:16.049Z,4.17
2019-02-18T10:01:43.128Z,4.72
2019-02-18T10:03:08.695Z,3.80
2019-02-18T10:04:34.153Z,4.13
2019-02-18T10:05:59.671Z,4.60
2019-02-18T10:07:25.239Z,4.77
2019-02-18T10:08:50.675Z,4.20
2019-02-18T10:10:16.373Z,3.63
2019-02-18T10:11:41.843Z,4.03
2019-02-18T10:13:07.398Z,4.87
2019-02-18T10:14:32.909Z,4.03
2019-02-18T10:15:58.373Z,4.20
2019-02-18T10:17:23.925Z,4.00
2019-02-18T10:18:49.421Z,3.77
2019-02-18T10:20:15.015Z,3.60
2019-02-18T10:21:40.610Z,4.00
2019-02-18T10:23:06.299Z,4.57
2019-02-18T10:24:31.856Z,4.10
2019-02-18T10:25:57.748Z,5.17
2019-02-18T10:27:23.208Z,3.97
2019-02-18T10:28:48.660Z,5.30
2019-02-18T10:30:14.361Z,4.60
2019-02-18T10:31:39.872Z,4.50
2019-02-18T10:33:05.528Z,4.83
2019-02-18T10:34:31.024Z,5.27
2019-02-18T10:35:56.587Z,4.63
2019-02-18T10:37:22.031Z,4.67
2019-02-18T10:38:47.556Z,4.07
2019-02-18T10:40:13.181Z,4.60
2019-02-18T10:41:38.712Z,4.87
2019-02-18T10:43:04.209Z,4.43
2019-02-18T10:44:29.665Z,4.93
2019-02-18T10:45:55.102Z,3.60
2019-02-18T10:47:21.086Z,3.37
2019-02-18T10:48:46.607Z,4.80
2019-02-18T10:50:12.406Z,4.00
2019-02-18T10:51:37.793Z,3.90
2019-02-18T10:53:04.146Z,4.43
2019-02-18T10:54:29.701Z,5.40
2019-02-18T10:55:55.268Z,4.57
2019-02-18T10:57:20.855Z,4.37
2019-02-18T10:58:46.246Z,4.37
2019-02-18T11:00:13.157Z,4.93
2019-02-18T11:01:38.739Z,4.90
2019-02-18T11:03:04.298Z,4.03
2019-02-18T11:04:29.930Z,4.70
2019-02-18T11:05:55.463Z,4.43
2019-02-18T11:07:20.934Z,4.83
2019-02-18T11:08:46.429Z,4.40
2019-02-18T11:10:13.807Z,3.83
2019-02-18T11:11:39.910Z,4.53
2019-02-18T11:13:05.452Z,5.50
2019-02-18T11:14:31.049Z,4.63
2019-02-18T11:15:56.558Z,5.00
2019-02-18T11:17:22.211Z,5.30
2019-02-18T11:18:47.712Z,5.17
2019-02-18T11:20:13.345Z,9.87
2019-02-18T11:21:38.814Z,7.83
2019-02-18T11:23:04.491Z,5.90
2019-02-18T11:24:30.153Z,5.27
2019-02-18T11:25:55.735Z,5.03
2019-02-18T11:27:21.296Z,7.37
2019-02-18T11:28:46.752Z,4.73
2019-02-18T11:30:13.808Z,4.60
2019-02-18T11:31:39.347Z,5.30
2019-02-18T11:33:04.823Z,6.03
2019-02-18T11:34:30.264Z,5.27
2019-02-18T11:35:55.842Z,5.33
2019-02-18T11:37:21.359Z,7.27
2019-02-18T11:38:46.869Z,4.40
2019-02-18T11:40:13.995Z,5.30
2019-02-18T11:41:39.455Z,9.90
2019-02-18T11:43:04.904Z,6.00
2019-02-18T11:44:30.434Z,5.70
2019-02-18T11:45:55.925Z,5.90
2019-02-18T11:47:21.531Z,5.70
2019-02-18T11:48:47.035Z,3.80
2019-02-18T11:50:13.206Z,4.43
2019-02-18T11:51:38.665Z,5.33
2019-02-18T11:53:04.107Z,4.10
2019-02-18T11:54:29.594Z,4.53
2019-02-18T11:55:55.124Z,5.27
2019-02-18T11:57:20.539Z,4.50
2019-02-18T11:58:46.095Z,5.30
2019-02-18T12:00:12.633Z,4.97
2019-02-18T12:01:38.165Z,5.97
2019-02-18T12:03:10.224Z,5.67
2019-02-18T12:04:31.005Z,4.70
2019-02-18T12:05:56.509Z,5.03
2019-02-18T12:07:21.977Z,5.13
2019-02-18T12:08:47.491Z,4.30
2019-02-18T12:10:13.208Z,4.50
2019-02-18T12:11:39.060Z,4.63
2019-02-18T12:13:04.606Z,5.22
2019-02-18T12:14:30.055Z,4.60
2019-02-18T12:15:55.548Z,5.13
2019-02-18T12:17:21.023Z,5.07
2019-02-18T12:18:46.634Z,5.53
2019-02-18T12:20:13.362Z,4.00
2019-02-18T12:21:38.815Z,4.77
2019-02-18T12:23:04.296Z,4.47
2019-02-18T12:24:29.790Z,4.33
2019-02-18T12:25:55.408Z,4.50
2019-02-18T12:27:20.929Z,4.10
2019-02-18T12:28:46.529Z,4.53
2019-02-18T12:30:13.085Z,4.13
2019-02-18T12:31:38.697Z,4.20
2019-02-18T12:33:04.237Z,3.80
2019-02-18T12:34:29.663Z,5.00
2019-02-18T12:35:55.129Z,4.10
2019-02-18T12:37:20.554Z,4.50
2019-02-18T12:38:46.019Z,7.07
2019-02-18T12:40:11.543Z,8.20
2019-02-18T12:41:37.035Z,5.80
2019-02-18T12:43:02.490Z,5.77
2019-02-18T12:44:27.968Z,4.90
2019-02-18T12:45:53.354Z,5.27
2019-02-18T12:47:19.187Z,3.97
2019-02-18T12:48:44.827Z,4.17
2019-02-18T12:50:10.511Z,4.20
2019-02-18T12:51:36.076Z,4.90
2019-02-18T12:53:02.585Z,3.77
2019-02-18T12:54:28.047Z,6.07
2019-02-18T12:55:53.647Z,5.63
2019-02-18T12:57:19.238Z,6.37
2019-02-18T12:58:54.261Z,4.77
2019-02-18T13:00:13.020Z,5.30
2019-02-18T13:01:38.953Z,5.00
2019-02-18T13:03:04.496Z,5.07
2019-02-18T13:04:31.939Z,5.90
2019-02-18T13:05:56.993Z,5.87
2019-02-18T13:07:22.672Z,6.40
2019-02-18T13:08:48.207Z,4.83
2019-02-18T13:10:14.464Z,4.57
2019-02-18T13:11:40.333Z,3.87
2019-02-18T13:13:05.877Z,4.33
2019-02-18T13:14:31.539Z,3.33
2019-02-18T13:15:57.002Z,4.50
2019-02-18T13:17:22.616Z,3.83
2019-02-18T13:18:48.173Z,5.80
2019-02-18T13:20:13.625Z,4.60
2019-02-18T13:21:39.023Z,4.17
2019-02-18T13:23:04.699Z,4.20
2019-02-18T13:24:30.157Z,4.17
2019-02-18T13:25:55.699Z,4.43
2019-02-18T13:27:21.169Z,4.60
2019-02-18T13:28:46.733Z,6.33
2019-02-18T13:30:14.219Z,4.47
2019-02-18T13:31:39.766Z,3.87
2019-02-18T13:33:05.483Z,4.43
2019-02-18T13:34:30.917Z,5.50
2019-02-18T13:35:56.882Z,5.30
2019-02-18T13:37:22.276Z,5.13
2019-02-18T13:38:47.969Z,4.40
2019-02-18T13:40:15.527Z,4.35
2019-02-18T13:41:41.406Z,5.30
2019-02-18T13:43:06.988Z,4.33
2019-02-18T13:44:32.607Z,4.53
2019-02-18T13:45:58.169Z,4.37
2019-02-18T13:47:24.001Z,4.93
2019-02-18T13:48:49.895Z,5.30
2019-02-18T13:50:15.533Z,4.60
2019-02-18T13:51:41.078Z,4.40
2019-02-18T13:53:06.540Z,5.20
2019-02-18T13:54:32.061Z,4.20
2019-02-18T13:55:57.569Z,3.77
2019-02-18T13:57:23.103Z,4.27
2019-02-18T13:58:48.679Z,4.70
2019-02-18T14:00:20.718Z,4.93
2019-02-18T14:01:46.216Z,4.03
2019-02-18T14:03:11.689Z,4.90
2019-02-18T14:04:37.758Z,5.60
2019-02-18T14:06:04.792Z,3.57
2019-02-18T14:07:30.878Z,4.20
2019-02-18T14:08:56.522Z,4.30
2019-02-18T14:10:22.944Z,5.57
2019-02-18T14:11:51.272Z,4.93
2019-02-18T14:13:16.659Z,4.83
2019-02-18T14:14:42.188Z,5.00
2019-02-18T14:16:08.007Z,4.47
2019-02-18T14:17:33.993Z,4.30
2019-02-18T14:18:59.520Z,4.57
2019-02-18T14:20:25.018Z,4.80
2019-02-18T14:21:51.069Z,4.73
2019-02-18T14:23:16.732Z,4.73
2019-02-18T14:24:42.419Z,4.20
2019-02-18T14:26:08.203Z,4.37
2019-02-18T14:27:33.911Z,4.83
2019-02-18T14:28:59.382Z,3.93
2019-02-18T14:30:26.154Z,4.50
2019-02-18T14:31:51.707Z,6.53
2019-02-18T14:33:17.194Z,4.80
2019-02-18T14:34:42.651Z,4.43
2019-02-18T14:36:08.697Z,5.30
2019-02-18T14:37:34.433Z,5.83
2019-02-18T14:38:59.916Z,4.47
2019-02-18T14:40:25.986Z,6.80
2019-02-18T14:41:51.526Z,5.23
2019-02-18T14:43:17.311Z,6.13
2019-02-18T14:44:43.631Z,5.20
2019-02-18T14:46:09.336Z,5.03
2019-02-18T14:47:34.791Z,3.80
2019-02-18T14:49:00.434Z,5.40
2019-02-18T14:50:26.103Z,4.43
2019-02-18T14:51:51.959Z,4.57
2019-02-18T14:53:18.189Z,4.40
2019-02-18T14:54:43.798Z,4.27
2019-02-18T14:56:11.202Z,5.10
2019-02-18T14:57:36.863Z,4.63
2019-02-18T14:59:02.599Z,4.77
2019-02-18T15:00:28.428Z,4.90
2019-02-18T15:01:54.286Z,5.00
2019-02-18T15:03:19.861Z,3.83
2019-02-18T15:04:45.439Z,4.57
2019-02-18T15:06:11.125Z,4.27
2019-02-18T15:07:40.535Z,4.67
2019-02-18T15:09:06.719Z,4.80
2019-02-18T15:10:32.517Z,4.03
2019-02-18T15:11:58.090Z,4.27
2019-02-18T15:13:23.646Z,4.40
2019-02-18T15:14:49.065Z,4.37
2019-02-18T15:16:14.705Z,4.83
2019-02-18T15:17:40.426Z,4.83
2019-02-18T15:19:06.076Z,4.03
2019-02-18T15:20:31.507Z,3.70
2019-02-18T15:21:57.098Z,3.63
2019-02-18T15:23:22.590Z,3.90
2019-02-18T15:24:48.085Z,3.97
2019-02-18T15:26:14.002Z,3.70
2019-02-18T15:27:39.817Z,5.13
2019-02-18T15:29:05.348Z,4.80
2019-02-18T15:30:31.067Z,4.53
2019-02-18T15:31:57.386Z,4.50
2019-02-18T15:33:23.024Z,5.50
2019-02-18T15:34:48.664Z,5.67
2019-02-18T15:36:14.186Z,4.10
2019-02-18T15:37:40.108Z,4.57
2019-02-18T15:39:07.071Z,4.20
2019-02-18T15:40:32.829Z,4.57
2019-02-18T15:41:58.435Z,4.33
2019-02-18T15:43:24.352Z,4.00
2019-02-18T15:44:49.910Z,3.80
2019-02-18T15:46:15.477Z,4.73
2019-02-18T15:47:41.143Z,4.00
2019-02-18T15:49:07.458Z,4.83
2019-02-18T15:50:38.688Z,3.53
2019-02-18T15:52:04.411Z,4.00
2019-02-18T15:53:29.848Z,3.10
2019-02-18T15:54:55.624Z,4.47
2019-02-18T15:56:21.349Z,4.63
2019-02-18T15:57:46.983Z,3.70
2019-02-18T15:59:12.495Z,5.00
2019-02-18T16:00:38.583Z,4.77
2019-02-18T16:02:04.193Z,3.93
2019-02-18T16:03:29.698Z,4.77
2019-02-18T16:04:56.752Z,4.13
2019-02-18T16:06:25.026Z,5.27
2019-02-18T16:07:53.526Z,3.90
2019-02-18T16:09:19.836Z,3.37
2019-02-18T16:10:45.362Z,3.23
2019-02-18T16:12:13.856Z,4.50
2019-02-18T16:13:39.313Z,4.20
2019-02-18T16:15:05.097Z,5.20
2019-02-18T16:16:34.295Z,4.47
2019-02-18T16:18:02.746Z,4.60
2019-02-18T16:19:28.755Z,4.00
2019-02-18T16:20:58.747Z,3.70
2019-02-18T16:22:32.319Z,3.80
2019-02-18T16:24:00.111Z,4.10
2019-02-18T16:25:26.698Z,3.70
2019-02-18T16:26:52.302Z,3.37
2019-02-18T16:28:22.429Z,5.17
2019-02-18T16:29:47.004Z,4.50
2019-02-18T16:31:14.194Z,4.57
2019-02-18T16:32:45.178Z,3.83
2019-02-18T16:34:10.614Z,4.37
2019-02-18T16:35:36.355Z,4.50
2019-02-18T16:37:08.539Z,4.10
2019-02-18T16:38:37.020Z,4.37
2019-02-18T16:40:02.616Z,4.40
2019-02-18T16:41:31.828Z,5.10
2019-02-18T16:42:59.254Z,5.40
2019-02-18T16:44:24.479Z,5.60
2019-02-18T16:45:50.092Z,5.90
2019-02-18T16:47:15.938Z,5.37
2019-02-18T16:48:41.438Z,3.73
2019-02-18T16:50:18.947Z,4.40
2019-02-18T16:51:44.405Z,4.03
2019-02-18T16:53:09.881Z,4.10
2019-02-18T16:54:35.715Z,4.30
2019-02-18T16:56:01.296Z,3.73
2019-02-18T16:57:26.900Z,4.00
2019-02-18T16:58:52.381Z,3.83
2019-02-18T17:00:30.762Z,4.40
2019-02-18T17:01:56.239Z,4.00
2019-02-18T17:03:21.688Z,4.00
2019-02-18T17:04:47.207Z,5.23
2019-02-18T17:06:12.838Z,3.73
2019-02-18T17:07:38.545Z,5.00
2019-02-18T17:09:10.710Z,4.13
2019-02-18T17:10:40.578Z,3.63
2019-02-18T17:12:06.609Z,4.50
2019-02-18T17:13:34.810Z,3.37
2019-02-18T17:15:01.011Z,3.53
2019-02-18T17:16:26.676Z,3.97
2019-02-18T17:17:52.235Z,4.27
2019-02-18T17:19:23.884Z,3.80
2019-02-18T17:20:50.666Z,3.73
2019-02-18T17:22:20.357Z,4.20
2019-02-18T17:23:45.853Z,5.50
2019-02-18T17:25:11.607Z,5.30
2019-02-18T17:26:37.140Z,5.47
2019-02-18T17:28:02.647Z,4.47
2019-02-18T17:29:28.123Z,4.60
2019-02-18T17:30:54.250Z,3.77
2019-02-18T17:32:19.870Z,3.63
2019-02-18T17:33:45.384Z,4.33
2019-02-18T17:35:12.121Z,3.13
2019-02-18T17:36:37.701Z,3.83
2019-02-18T17:38:03.239Z,3.27
2019-02-18T17:39:28.778Z,4.37
2019-02-18T17:40:54.243Z,4.20
2019-02-18T17:42:19.878Z,4.57
2019-02-18T17:43:45.325Z,4.27
2019-02-18T17:45:12.486Z,5.43
2019-02-18T17:46:37.905Z,4.80
2019-02-18T17:48:03.547Z,5.10
2019-02-18T17:49:29.065Z,5.07
2019-02-18T17:50:54.859Z,5.00
2019-02-18T17:52:20.397Z,4.50
2019-02-18T17:53:46.014Z,4.27
2019-02-18T17:55:12.805Z,5.47
2019-02-18T17:56:38.667Z,5.30
2019-02-18T17:58:07.795Z,4.87
2019-02-18T17:59:32.428Z,4.97
2019-02-18T18:00:58.515Z,4.50
2019-02-18T18:02:24.446Z,4.07
2019-02-18T18:03:49.941Z,4.10
2019-02-18T18:05:16.359Z,4.90
2019-02-18T18:06:41.923Z,4.40
2019-02-18T18:08:07.784Z,4.20
2019-02-18T18:09:33.249Z,3.93
2019-02-18T18:10:58.776Z,4.27
2019-02-18T18:12:24.286Z,4.63
2019-02-18T18:13:50.452Z,3.77
2019-02-18T18:15:18.686Z,3.60
2019-02-18T18:16:44.231Z,3.63
2019-02-18T18:18:09.767Z,4.07
2019-02-18T18:19:35.471Z,3.80
2019-02-18T18:21:01.054Z,4.80
2019-02-18T18:22:26.923Z,3.80
2019-02-18T18:23:52.456Z,4.37
2019-02-18T18:25:19.580Z,3.10
2019-02-18T18:26:46.208Z,4.10
2019-02-18T18:28:11.855Z,3.53
2019-02-18T18:29:37.341Z,3.47
2019-02-18T18:31:03.148Z,4.20
2019-02-18T18:32:30.021Z,5.23
2019-02-18T18:33:55.499Z,4.33
2019-02-18T18:35:21.003Z,6.80
2019-02-18T18:36:46.450Z,5.47
2019-02-18T18:38:11.900Z,5.20
2019-02-18T18:39:37.347Z,4.70
2019-02-18T18:41:02.833Z,5.17
2019-02-18T18:42:28.270Z,4.07
2019-02-18T18:43:53.721Z,4.23
2019-02-18T18:45:19.206Z,4.40
2019-02-18T18:46:44.723Z,5.57
2019-02-18T18:48:10.230Z,4.60
2019-02-18T18:49:35.731Z,4.87
2019-02-18T18:51:01.443Z,3.60
2019-02-18T18:52:27.126Z,3.90
2019-02-18T18:53:52.663Z,4.57
2019-02-18T18:55:18.110Z,4.50
2019-02-18T18:56:43.628Z,4.10
2019-02-18T18:58:09.152Z,4.30
2019-02-18T18:59:34.659Z,5.57
2019-02-18T19:01:00.194Z,4.30
2019-02-18T19:02:25.780Z,4.53
2019-02-18T19:03:51.216Z,4.07
2019-02-18T19:05:17.140Z,3.90
2019-02-18T19:06:42.729Z,3.87
2019-02-18T19:08:08.246Z,5.73